Thursday, October 23, 2014
03:53 UTC
  |  Log In   |  Register Free
Airport Search:

Rwj Airpark Airport
(54T)

Rwj Airpark Airport Diagram
No Airport Diagram Available

FAA data valid effective September 18, 2014 - November 13, 2014 (unless otherwise noted).

 
 
 
 
 
 
 
 
 
 
 
 
 
 

Current Aviation Weather for Rwj Airpark Airport (54T)

METAR data is unavailable for 54T. The nearest METAR location is at KEFD (18.7 nm SW from 54T).

The most recent METAR observation for KEFD was updated at: 0312
METAR Summary (Translated METAR)
KEFD
230250Z 00000KT 10SM FEW040 21/18 A3010
(18.7 nm SW from 54T)
KHOU
230253Z 00000KT 10SM FEW035 19/16 A3009 RMK AO2 SLP193 T01940161 53016
(23.6 nm SW from 54T)
TAF Summary (Translated TAF)
KEFD
2220/2402 06009KT 9999 FEW250 QNH2999INS TX27/2221Z TN16/2311Z
KHOU
(6.7 nm NW from KEFD)
230302Z 2303/2324 VRB03KT P6SM FEW035 FEW250 FM231300 05007KT P6SM SCT150
  Airport Weather Conditions for 54T

Current weather conditions are
not available for 54T


The nearest NOAA weather station
is at EFD, (18.7 nm SW from 54T)
  
 Current Weather at EFD
72° F
A Few Clouds
North winds at 0.0 mph
EFD NOAA Radar

Pressure: 30.08 in
Humidity: 73%
Wind: Calm
Dew Point: 62.6°F
Visibility: 10.00 mi


Airport Weather Forecast for 54T

Translated METAR and TAF for KEFD
Translated METAR for KEFD (0348 UTC 23 October 2014)
found at http://aviationweather.gov/adds/metars/
 
METAR text: KEFD 230250Z 00000KT 10SM FEW040 21/18 A3010
Conditions at: KEFD (HOUSTON/ELLINGTO, TX, US) observed 0250 UTC 23 October 2014
Temperature: 21.0°C (70°F)
Dewpoint: 18.0°C (64°F) [RH = 83%]
Pressure (altimeter): 30.10 inches Hg (1019.4 mb)
Winds: calm
Visibility: 10 or more miles (16+ km)
Ceiling: at least 12,000 feet AGL
Clouds: few clouds at 4000 feet AGL
Weather: no significant weather observed at this time
Translated TAF for KEFD
Forecast for: KEFD (HOUSTON/ELLINGTO, TX, US)
TAF Text: TAF KEFD 2220/2402 06009KT 9999 FEW250 QNH2999INS TX27/2221Z TN16/2311Z
Forecast period: 2000 UTC 22 October 2014 to 0200 UTC 24 October 2014
Forecast type: FROM: standard forecast or significant change
Winds: from the ENE (60 degrees) at 10 MPH (9 knots; 4.7 m/s)
Visibility: 6 or more miles (10+ km)
Clouds: few clouds at 25000 feet AGL
Weather: no significant weather forecast for this period

Find All Airport Services Find A Hotel Find A Rental Car Find A Golf Course Find A Restaurant $100 Hamburger



FBO's on the Field
FBO Company Facility Photos Services Transportation Aviation Fuel Prices: Prices include tax
Catering Weather Repair Courtesy Rental Type 100LL JetA JetA+ MOGAS 8087
 
Bay Area Aviation Inc

This FBO has not yet been rated
FS:Avfuel
Last Updated: Sep-25
Login to update fuel prices
SS:
Contact Bay Area Aviation IncMore FBO Information
 
Add another FBO Facility Photos Catering Weather Repair Courtesy Rental Type 100LL JetA JetA+ MOGAS 8087
Services Transportation Aviation Fuel Prices: Prices include tax


model-print
model-print
model-print
model-print